Lublin Radawiec, Poland
Current Conditions -  °F | °C
As of 11:30 PM on Saturday 22 Nov 2014 (Local Time) from EPLB Reporting Station
Haze Haze  
Wind Chill: 34°   Ceiling: 900
Heat Index: 34°   Visibility: 2.8mi
Dew Point: 34°   Wind: 2mph
Humidity: 100%   Direction: NA
Pressure: 30.39"   Gusts: NA
Location:  51.2°N, 22.39°E
Report Text: EPLB 222130Z VRB02KT 4600 BR BKN009 OVC014 01/01 Q1029
Loading
Personal Weather Stations






























Interactive Weather Map New forecast layout! Learn more

10-Day Weather Forecast

Advertisements
Track Severe Weather on mobile